createdAt,value
2022-11-14T00:02:13.773Z,101753.59
2022-11-14T00:05:00.237Z,101759.08
2022-11-14T00:07:47.434Z,101759.13
2022-11-14T00:10:33.825Z,101755.82
2022-11-14T00:13:20.662Z,101756.77
2022-11-14T00:16:07.240Z,101755.54
2022-11-14T00:18:53.644Z,101753.77
2022-11-14T00:21:40.290Z,101751.47
2022-11-14T00:24:26.430Z,101752.71
2022-11-14T00:27:13.096Z,101760.11
2022-11-14T00:29:59.675Z,101756.91
2022-11-14T00:32:46.314Z,101754.50
2022-11-14T00:35:32.821Z,101755.30
2022-11-14T00:38:19.026Z,101756.84
2022-11-14T00:41:05.559Z,101757.80
2022-11-14T00:43:51.918Z,101753.48
2022-11-14T00:46:38.673Z,101754.91
2022-11-14T00:49:24.812Z,101761.67
2022-11-14T00:52:11.099Z,101759.74
2022-11-14T00:54:57.707Z,101754.73
2022-11-14T00:57:44.398Z,101746.80
2022-11-14T01:00:31.179Z,101746.06
2022-11-14T01:03:18.116Z,101738.49
2022-11-14T01:06:07.777Z,101736.61
2022-11-14T01:08:54.377Z,101736.60
2022-11-14T01:11:40.364Z,101730.23
2022-11-14T01:14:26.368Z,101730.52
2022-11-14T01:17:12.568Z,101728.44
2022-11-14T01:19:59.071Z,101726.93
2022-11-14T01:22:45.228Z,101723.63
2022-11-14T01:25:33.792Z,101720.07
2022-11-14T01:28:20.150Z,101713.88
2022-11-14T01:31:09.858Z,101708.36
2022-11-14T01:33:56.295Z,101702.61
2022-11-14T01:36:42.815Z,101701.73
2022-11-14T01:39:28.894Z,101700.05
2022-11-14T01:42:17.465Z,101700.30
2022-11-14T01:45:48.895Z,101699.33
2022-11-14T01:48:49.304Z,101694.02
2022-11-14T01:51:41.838Z,101687.98
2022-11-14T01:54:32.891Z,101683.64
2022-11-14T01:57:25.390Z,101677.67
2022-11-14T02:00:13.132Z,101678.88
2022-11-14T02:03:00.864Z,101673.38
2022-11-14T02:05:48.832Z,101676.30
2022-11-14T02:08:36.741Z,101677.46
2022-11-14T02:11:23.381Z,101674.85
2022-11-14T02:14:09.834Z,101673.23
2022-11-14T02:17:22.702Z,101677.29
2022-11-14T02:20:11.845Z,101672.92
2022-11-14T02:22:58.403Z,101670.81
2022-11-14T02:25:44.652Z,101667.64
2022-11-14T02:28:31.442Z,101665.90
2022-11-14T02:31:17.747Z,101664.13
2022-11-14T02:34:03.966Z,101664.71
2022-11-14T02:36:50.697Z,101666.19
2022-11-14T02:39:37.069Z,101657.16
2022-11-14T02:42:23.610Z,101661.92
2022-11-14T02:45:12.266Z,101662.64
2022-11-14T02:47:58.667Z,101653.04
2022-11-14T02:50:47.921Z,101655.48
2022-11-14T02:53:34.660Z,101656.52
2022-11-14T02:56:21.013Z,101650.06
2022-11-14T02:59:06.928Z,101647.46
2022-11-14T03:01:53.202Z,101649.90
2022-11-14T03:04:39.704Z,101645.14
2022-11-14T03:07:26.302Z,101641.62
2022-11-14T03:10:14.019Z,101639.03
2022-11-14T03:13:00.719Z,101634.14
2022-11-14T03:15:47.154Z,101634.34
2022-11-14T03:18:33.701Z,101628.52
2022-11-14T03:21:21.707Z,101622.17
2022-11-14T03:24:08.263Z,101620.63
2022-11-14T03:26:54.715Z,101617.73
2022-11-14T03:29:40.986Z,101612.84
2022-11-14T03:32:27.545Z,101615.33
2022-11-14T03:35:13.764Z,101614.80
2022-11-14T03:37:59.843Z,101616.54
2022-11-14T03:40:46.047Z,101617.02
2022-11-14T03:43:34.173Z,101613.33
2022-11-14T03:46:20.630Z,101612.38
2022-11-14T03:49:07.268Z,101613.31
2022-11-14T03:51:53.802Z,101612.68
2022-11-14T03:54:39.822Z,101614.45
2022-11-14T03:57:26.028Z,101611.40
2022-11-14T04:00:13.210Z,101610.52
2022-11-14T04:02:59.562Z,101607.38
2022-11-14T04:05:46.356Z,101606.18
2022-11-14T04:08:33.315Z,101600.66
2022-11-14T04:11:20.096Z,101598.44
2022-11-14T04:14:06.866Z,101599.45
2022-11-14T04:16:53.228Z,101600.48
2022-11-14T04:19:39.488Z,101597.00
2022-11-14T04:22:26.057Z,101592.52
2022-11-14T04:25:12.499Z,101591.24
2022-11-14T04:27:58.798Z,101589.71
2022-11-14T04:30:45.450Z,101589.16
2022-11-14T04:33:31.875Z,101590.30
2022-11-14T04:36:18.032Z,101594.50
2022-11-14T04:39:04.823Z,101583.83
2022-11-14T04:41:51.142Z,101580.92
2022-11-14T04:44:37.441Z,101579.38
2022-11-14T04:47:24.010Z,101576.27
2022-11-14T04:50:10.544Z,101576.38
2022-11-14T04:52:56.774Z,101578.41
2022-11-14T04:55:44.887Z,101577.15
2022-11-14T04:58:31.322Z,101572.71
2022-11-14T05:01:18.050Z,101570.27
2022-11-14T05:04:04.444Z,101570.30
2022-11-14T05:06:50.722Z,101566.84
2022-11-14T05:09:37.058Z,101563.32
2022-11-14T05:12:23.470Z,101566.32
2022-11-14T05:15:10.011Z,101569.48
2022-11-14T05:17:58.449Z,101571.65
2022-11-14T05:20:44.846Z,101565.36
2022-11-14T05:23:31.131Z,101570.92
2022-11-14T05:26:18.524Z,101569.54
2022-11-14T05:29:04.603Z,101568.42
2022-11-14T05:31:50.908Z,101569.63
2022-11-14T05:34:37.362Z,101568.98
2022-11-14T05:37:23.770Z,101567.27
2022-11-14T05:40:10.495Z,101566.07
2022-11-14T05:42:56.701Z,101563.40
2022-11-14T05:45:43.371Z,101560.79
2022-11-14T05:48:30.758Z,101560.44
2022-11-14T05:51:17.069Z,101561.65
2022-11-14T05:54:03.216Z,101564.59
2022-11-14T05:56:49.839Z,101564.17
2022-11-14T05:59:36.153Z,101567.44
2022-11-14T06:02:22.681Z,101567.97
2022-11-14T06:05:09.548Z,101571.73
2022-11-14T06:07:59.383Z,101573.96
2022-11-14T06:10:45.976Z,101571.44
2022-11-14T06:13:32.832Z,101578.46
2022-11-14T06:16:19.863Z,101572.49
2022-11-14T06:19:07.146Z,101575.98
2022-11-14T06:21:53.394Z,101579.94
2022-11-14T06:24:39.563Z,101580.08
2022-11-14T06:27:25.679Z,101577.40
2022-11-14T06:30:12.621Z,101578.63
2022-11-14T06:32:59.360Z,101576.59
2022-11-14T06:35:45.797Z,101576.32
2022-11-14T06:38:33.518Z,101579.01
2022-11-14T06:41:21.786Z,101581.63
2022-11-14T06:44:08.836Z,101586.38
2022-11-14T06:46:56.400Z,101586.01
2022-11-14T06:49:42.750Z,101584.08
2022-11-14T06:52:29.217Z,101582.21
2022-11-14T06:55:17.689Z,101583.81
2022-11-14T06:58:06.060Z,101585.57
2022-11-14T07:00:52.342Z,101586.33
2022-11-14T07:03:38.617Z,101587.73
2022-11-14T07:06:26.882Z,101595.09
2022-11-14T07:09:13.269Z,101596.11
2022-11-14T07:11:59.607Z,101596.66
2022-11-14T07:14:46.238Z,101596.80
2022-11-14T07:17:35.772Z,101599.50
2022-11-14T07:20:22.157Z,101595.39
2022-11-14T07:23:08.806Z,101588.20
2022-11-14T07:25:55.203Z,101586.36
2022-11-14T07:28:45.932Z,101577.99
2022-11-14T07:31:34.664Z,101574.77
2022-11-14T07:34:20.772Z,101575.21
2022-11-14T07:37:07.224Z,101574.46
2022-11-14T07:39:53.806Z,101576.13
2022-11-14T07:42:40.393Z,101575.45
2022-11-14T07:45:28.147Z,101574.71
2022-11-14T07:48:17.499Z,101577.16
2022-11-14T07:51:07.097Z,101576.95
2022-11-14T07:53:53.713Z,101575.51
2022-11-14T07:56:40.074Z,101571.25
2022-11-14T07:59:26.262Z,101571.67
2022-11-14T08:02:15.863Z,101572.36
2022-11-14T08:05:02.204Z,101569.53
2022-11-14T08:07:52.530Z,101573.76
2022-11-14T08:10:38.860Z,101568.33
2022-11-14T08:13:32.204Z,101566.13
2022-11-14T08:16:19.487Z,101566.20
2022-11-14T08:19:06.320Z,101564.11
2022-11-14T08:21:52.456Z,101562.46
2022-11-14T08:24:38.941Z,101555.76
2022-11-14T08:27:25.811Z,101551.73
2022-11-14T08:30:12.583Z,101553.77
2022-11-14T08:33:03.345Z,101551.96
2022-11-14T08:35:49.451Z,101553.52
2022-11-14T08:38:35.677Z,101551.70
2022-11-14T08:41:21.886Z,101551.62
2022-11-14T08:44:08.526Z,101546.86
2022-11-14T08:46:54.707Z,101542.84
2022-11-14T08:49:40.982Z,101538.13
2022-11-14T08:52:27.553Z,101539.12
2022-11-14T08:55:13.703Z,101536.36
2022-11-14T08:57:59.821Z,101531.71
2022-11-14T09:00:46.929Z,101523.63
2022-11-14T09:03:34.524Z,101518.14
2022-11-14T09:06:21.090Z,101515.37
2022-11-14T09:09:07.346Z,101515.74
2022-11-14T09:11:53.442Z,101513.46
2022-11-14T09:14:39.657Z,101516.76
2022-11-14T09:17:26.199Z,101510.73
2022-11-14T09:20:12.515Z,101511.55
2022-11-14T09:23:02.999Z,101510.92
2022-11-14T09:25:49.463Z,101514.41
2022-11-14T09:28:36.781Z,101515.01
2022-11-14T09:31:22.998Z,101516.25
2022-11-14T09:34:09.388Z,101512.44
2022-11-14T09:36:55.800Z,101506.21
2022-11-14T09:39:42.537Z,101508.73
2022-11-14T09:42:38.147Z,101510.19
2022-11-14T09:45:25.451Z,101510.05
2022-11-14T09:48:18.558Z,101508.75
2022-11-14T09:51:10.536Z,101502.38
2022-11-14T09:54:22.401Z,101502.26
2022-11-14T09:57:15.424Z,101498.55
2022-11-14T10:00:02.090Z,101497.81
2022-11-14T10:03:09.065Z,101499.02
2022-11-14T10:06:22.686Z,101492.66
2022-11-14T10:09:34.027Z,101495.45
2022-11-14T10:12:31.104Z,101490.27
2022-11-14T10:15:37.353Z,101489.16
2022-11-14T10:18:39.002Z,101479.92
2022-11-14T10:21:40.599Z,101481.20
2022-11-14T10:24:59.289Z,101475.84
2022-11-14T10:28:09.633Z,101476.79
2022-11-14T10:31:17.461Z,101470.10
2022-11-14T10:34:14.138Z,101469.20
2022-11-14T10:37:18.139Z,101472.59
2022-11-14T10:40:22.224Z,101470.73
2022-11-14T10:43:21.736Z,101467.67
2022-11-14T10:46:15.167Z,101460.79
2022-11-14T10:49:01.671Z,101453.95
2022-11-14T10:51:54.326Z,101448.47
2022-11-14T10:55:03.254Z,101444.67
2022-11-14T10:57:49.623Z,101443.13
2022-11-14T11:00:36.151Z,101439.06
2022-11-14T11:03:41.295Z,101435.30
2022-11-14T11:06:29.376Z,101434.41
2022-11-14T11:09:42.328Z,101434.75
2022-11-14T11:12:34.923Z,101431.80
2022-11-14T11:15:22.762Z,101428.91
2022-11-14T11:18:48.508Z,101422.45
2022-11-14T11:21:49.449Z,101415.83
2022-11-14T11:24:37.932Z,101411.73
2022-11-14T11:27:30.421Z,101411.58
2022-11-14T11:30:23.357Z,101407.66
2022-11-14T11:33:16.878Z,101401.36
2022-11-14T11:36:15.140Z,101397.27
2022-11-14T11:39:01.887Z,101395.67
2022-11-14T11:45:02.571Z,101389.34
2022-11-14T11:47:57.770Z,101386.30
2022-11-14T11:50:44.274Z,101390.04
2022-11-14T11:53:39.250Z,101389.59
2022-11-14T11:56:30.535Z,101381.61
2022-11-14T11:59:36.596Z,101373.14
2022-11-14T12:02:27.243Z,101372.42
2022-11-14T12:05:16.437Z,101375.16
2022-11-14T12:08:37.545Z,101370.42
2022-11-14T12:11:27.417Z,101372.74
2022-11-14T12:14:55.762Z,101375.69
2022-11-14T12:18:32.184Z,101372.46
2022-11-14T12:21:24.811Z,101374.36
2022-11-14T12:24:23.765Z,101375.38
2022-11-14T12:27:25.564Z,101374.90
2022-11-14T12:30:23.621Z,101369.79
2022-11-14T12:33:27.037Z,101375.00
2022-11-14T12:36:13.946Z,101378.48
2022-11-14T12:39:01.942Z,101380.06
2022-11-14T12:41:48.316Z,101381.31
2022-11-14T12:44:38.715Z,101379.73
2022-11-14T12:47:27.489Z,101377.96
2022-11-14T12:50:39.429Z,101374.15
2022-11-14T12:53:38.217Z,101371.11
2022-11-14T12:56:33.286Z,101374.53
2022-11-14T12:59:35.421Z,101369.03
2022-11-14T13:02:49.263Z,101369.71
2022-11-14T13:05:52.051Z,101371.13
2022-11-14T13:09:16.065Z,101371.27
2022-11-14T13:12:46.266Z,101372.09
2022-11-14T13:15:55.120Z,101368.25
2022-11-14T13:19:11.260Z,101372.77
2022-11-14T13:22:11.960Z,101370.16
2022-11-14T13:24:58.299Z,101369.86
2022-11-14T13:28:06.505Z,101366.34
2022-11-14T13:31:16.101Z,101363.64
2022-11-14T13:34:29.379Z,101361.70
2022-11-14T13:37:21.993Z,101352.77
2022-11-14T13:40:14.237Z,101349.17
2022-11-14T13:43:19.997Z,101349.02
2022-11-14T13:46:38.728Z,101342.39
2022-11-14T13:49:31.114Z,101337.53
2022-11-14T13:52:17.312Z,101339.38
2022-11-14T13:55:04.622Z,101331.30
2022-11-14T13:58:12.679Z,101326.88
2022-11-14T14:01:01.797Z,101319.80
2022-11-14T14:03:56.738Z,101318.57
2022-11-14T14:07:21.134Z,101316.98
2022-11-14T14:10:24.472Z,101312.87
2022-11-14T14:13:25.900Z,101309.25
2022-11-14T14:16:34.001Z,101303.23
2022-11-14T14:19:29.680Z,101306.70
2022-11-14T14:22:41.385Z,101306.22
2022-11-14T14:25:37.052Z,101305.71
2022-11-14T14:28:56.571Z,101303.31
2022-11-14T14:31:43.998Z,101298.89
2022-11-14T14:34:31.819Z,101297.08
2022-11-14T14:37:19.710Z,101295.89
2022-11-14T14:40:08.834Z,101289.30
2022-11-14T14:42:58.853Z,101286.55
2022-11-14T14:45:51.661Z,101281.79
2022-11-14T14:48:42.214Z,101282.05
2022-11-14T14:51:34.140Z,101275.83
2022-11-14T14:54:29.919Z,101273.33
2022-11-14T14:57:21.304Z,101268.49
2022-11-14T15:00:23.374Z,101272.21
2022-11-14T15:03:10.741Z,101278.95
2022-11-14T15:05:59.459Z,101275.02
2022-11-14T15:08:46.465Z,101276.42
2022-11-14T15:11:33.813Z,101275.47
2022-11-14T15:14:26.682Z,101274.02
2022-11-14T15:17:13.570Z,101271.33
2022-11-14T15:20:00.280Z,101269.95
2022-11-14T15:23:03.866Z,101266.20
2022-11-14T15:26:02.762Z,101257.73
2022-11-14T15:28:48.923Z,101254.16
2022-11-14T15:31:37.092Z,101251.23
2022-11-14T15:34:25.457Z,101249.60
2022-11-14T15:37:16.559Z,101244.27
2022-11-14T15:40:18.958Z,101244.40
2022-11-14T15:43:50.587Z,101241.80
2022-11-14T15:46:47.581Z,101237.02
2022-11-14T15:49:35.799Z,101236.25
2022-11-14T15:52:27.155Z,101235.74
2022-11-14T15:55:17.606Z,101237.30
2022-11-14T15:58:27.237Z,101234.09
2022-11-14T16:01:18.937Z,101232.77
2022-11-14T16:04:05.568Z,101231.43
2022-11-14T16:06:52.463Z,101222.48
2022-11-14T16:09:38.853Z,101225.67
2022-11-14T16:12:25.130Z,101224.54
2022-11-14T16:15:12.095Z,101213.42
2022-11-14T16:17:58.940Z,101212.89
2022-11-14T16:20:45.369Z,101206.33
2022-11-14T16:23:32.150Z,101206.48
2022-11-14T16:26:18.905Z,101201.06
2022-11-14T16:29:05.148Z,101197.04
2022-11-14T16:31:51.892Z,101192.98
2022-11-14T16:34:38.452Z,101191.35
2022-11-14T16:37:25.570Z,101198.84
2022-11-14T16:40:17.149Z,101198.41
2022-11-14T16:43:03.736Z,101196.53
2022-11-14T16:45:50.537Z,101195.87
2022-11-14T16:48:36.653Z,101193.45
2022-11-14T16:51:46.668Z,101192.21
2022-11-14T16:54:29.434Z,101192.62
2022-11-14T16:57:16.044Z,101191.87
2022-11-14T17:00:02.373Z,101191.91
2022-11-14T17:02:50.085Z,101191.23
2022-11-14T17:05:44.409Z,101190.83
2022-11-14T17:08:31.156Z,101186.30
2022-11-14T17:11:19.029Z,101180.45
2022-11-14T17:14:06.028Z,101183.17
2022-11-14T17:16:52.515Z,101180.31
2022-11-14T17:19:45.758Z,101175.42
2022-11-14T17:22:32.694Z,101164.59
2022-11-14T17:25:19.150Z,101161.67
2022-11-14T17:28:06.274Z,101159.41
2022-11-14T17:30:52.493Z,101154.25
2022-11-14T17:33:38.935Z,101156.77
2022-11-14T17:36:28.178Z,101156.58
2022-11-14T17:39:15.244Z,101153.11
2022-11-14T17:42:01.518Z,101153.74
2022-11-14T17:44:48.847Z,101149.67
2022-11-14T17:47:36.183Z,101144.93
2022-11-14T17:50:23.404Z,101152.02
2022-11-14T17:53:09.998Z,101150.19
2022-11-14T17:55:59.559Z,101146.61
2022-11-14T17:58:46.684Z,101138.91
2022-11-14T18:01:33.050Z,101136.35
2022-11-14T18:04:19.795Z,101137.33
2022-11-14T18:07:06.506Z,101143.48
2022-11-14T18:09:52.761Z,101145.62
2022-11-14T18:12:39.231Z,101143.79
2022-11-14T18:15:28.122Z,101134.98
2022-11-14T18:18:14.698Z,101138.02
2022-11-14T18:21:13.720Z,101137.20
2022-11-14T18:24:00.300Z,101141.27
2022-11-14T18:26:46.966Z,101137.86
2022-11-14T18:29:33.399Z,101135.63
2022-11-14T18:32:20.251Z,101131.68
2022-11-14T18:35:06.803Z,101129.52
2022-11-14T18:37:53.635Z,101133.23
2022-11-14T18:40:44.234Z,101127.89
2022-11-14T18:43:32.852Z,101117.48
2022-11-14T18:46:24.624Z,101116.77
2022-11-14T18:49:11.361Z,101116.61
2022-11-14T18:51:57.700Z,101118.61
2022-11-14T18:54:44.192Z,101113.23
2022-11-14T18:57:30.708Z,101107.16
2022-11-14T19:00:17.177Z,101106.96
2022-11-14T19:08:26.980Z,101106.18
2022-11-14T19:11:34.353Z,101102.03
2022-11-14T19:14:22.086Z,101094.68
2022-11-14T19:17:08.912Z,101103.38
2022-11-14T19:19:55.813Z,101099.63
2022-11-14T19:22:42.092Z,101097.66
2022-11-14T19:25:28.513Z,101097.39
2022-11-14T19:28:15.171Z,101095.85
2022-11-14T19:31:05.807Z,101097.18
2022-11-14T19:33:52.154Z,101092.80
2022-11-14T19:36:58.912Z,101094.20
2022-11-14T19:39:44.966Z,101091.98
2022-11-14T19:42:31.199Z,101090.74
2022-11-14T19:45:17.841Z,101086.61
2022-11-14T19:48:05.499Z,101081.81
2022-11-14T19:51:02.518Z,101071.11
2022-11-14T19:53:49.524Z,101074.44
2022-11-14T19:56:36.290Z,101072.95
2022-11-14T19:59:24.663Z,101067.67
2022-11-14T20:02:14.533Z,101059.77
2022-11-14T20:05:00.866Z,101058.89
2022-11-14T20:07:47.101Z,101059.79
2022-11-14T20:10:47.506Z,101057.05
2022-11-14T20:13:40.187Z,101052.66
2022-11-14T20:16:29.562Z,101056.05
2022-11-14T20:19:16.745Z,101048.88
2022-11-14T20:22:06.475Z,101048.39
2022-11-14T20:24:53.128Z,101041.47
2022-11-14T20:27:39.695Z,101035.95
2022-11-14T20:30:25.860Z,101028.27
2022-11-14T20:33:12.557Z,101027.54
2022-11-14T20:36:04.677Z,101026.70
2022-11-14T20:38:52.490Z,101026.30
2022-11-14T20:41:39.125Z,101018.11
2022-11-14T20:44:27.839Z,101013.27
2022-11-14T20:47:14.615Z,101012.26
2022-11-14T20:50:01.275Z,101009.14
2022-11-14T20:52:48.334Z,101004.51
2022-11-14T20:55:35.282Z,100999.86
2022-11-14T20:58:22.560Z,101002.21
2022-11-14T21:07:40.149Z,100985.15
2022-11-14T21:10:45.309Z,100982.23
2022-11-14T21:13:57.356Z,100983.20
2022-11-14T21:16:43.609Z,100980.61
2022-11-14T21:19:30.096Z,100979.58
2022-11-14T21:22:16.967Z,100981.47
2022-11-14T21:25:04.090Z,100976.56
2022-11-14T21:27:50.465Z,100978.39
2022-11-14T21:30:37.521Z,100976.17
2022-11-14T21:33:25.844Z,100979.64
2022-11-14T21:36:43.392Z,100980.50
2022-11-14T21:39:19.976Z,100978.89
2022-11-14T21:42:06.221Z,100978.73
2022-11-14T21:44:52.744Z,100981.91
2022-11-14T21:47:39.222Z,100978.09
2022-11-14T21:50:25.932Z,100972.08
2022-11-14T21:53:16.112Z,100966.67
2022-11-14T21:56:12.606Z,100964.23
2022-11-14T21:59:13.561Z,100964.59
2022-11-14T22:02:18.875Z,100962.17
2022-11-14T22:05:05.252Z,100956.95
2022-11-14T22:07:51.692Z,100953.72
2022-11-14T22:10:38.130Z,100958.24
2022-11-14T22:13:24.287Z,100956.14
2022-11-14T22:16:17.614Z,100947.73
2022-11-14T22:19:05.482Z,100942.96
2022-11-14T22:21:52.913Z,100947.41
2022-11-14T22:24:39.269Z,100945.77
2022-11-14T22:27:26.364Z,100941.66
2022-11-14T22:44:30.297Z,100944.61
2022-11-14T22:47:15.218Z,100942.45
2022-11-14T22:50:00.299Z,100935.52
2022-11-14T22:52:45.079Z,100934.25
2022-11-14T22:55:29.986Z,100930.23
2022-11-14T22:58:14.856Z,100926.75
2022-11-14T23:01:00.915Z,100919.68
2022-11-14T23:03:50.086Z,100911.64
2022-11-14T23:06:35.338Z,100909.56
2022-11-14T23:09:20.084Z,100903.44
2022-11-14T23:12:05.415Z,100900.73
2022-11-14T23:14:51.673Z,100900.09
2022-11-14T23:17:36.494Z,100899.58
2022-11-14T23:20:21.425Z,100896.90
2022-11-14T23:23:06.263Z,100893.09
2022-11-14T23:25:51.332Z,100889.08
2022-11-14T23:28:36.527Z,100886.95
2022-11-14T23:31:22.921Z,100889.64
2022-11-14T23:34:07.968Z,100886.85
2022-11-14T23:36:52.883Z,100883.28
2022-11-14T23:39:39.492Z,100882.69
2022-11-14T23:42:24.560Z,100878.12
2022-11-14T23:45:09.445Z,100881.83
2022-11-14T23:47:54.193Z,100875.60
2022-11-14T23:50:39.137Z,100875.88
2022-11-14T23:53:23.831Z,100870.05
2022-11-14T23:56:12.459Z,100868.58
2022-11-14T23:58:57.640Z,100861.54
